Rachel, Nevada Weather observations

Data are for observation ending at time listed.
 Day   Time    Ave.   Ave.  Ave.  Vector   Max.   Stn.    Total    Solar   Ave.  
  of    of     Air    Rel.  Wind   Wind    Wind   Baro.  Precip.   Rad.    Soil  
Year   Day     Temp.  Hum.  Speed  Dir.    Gust   Pres.                    Temp. 
2019   (PST)    F      %     mph   deg.    mph     mb.     in.     W/m2     F   
------------------------------------------------------------------------------
 323    1:20   33.6    46    5.5   229      8.8   844.4    0.00       0    34.1
 323    1:30   33.2    46    4.8   230      8.9   844.3    0.00       0    33.7
 323    1:40   32.4    46    4.2   235      6.8   844.3    0.00       0    32.7
 323    1:50   32.2    46    2.0   244      4.4   844.2    0.00       0    31.8
 323    2:00   32.1    46    2.3   282      4.4   844.0    0.00       0    32.4
 323    2:10   31.9    47    2.5   240      4.5   843.9    0.00       0    32.2
 323    2:20   30.9    48    2.2   232      6.5   843.4    0.00       0    31.5
 323    2:30   31.0    48    2.8   246      6.7   843.3    0.00       0    31.4
 323    2:40   31.0    48    2.0   264      5.7   843.1    0.00       0    30.9
 323    2:50   30.3    46    2.6   207      5.8   843.0    0.00       0    31.1
 323    3:00   29.9    48    5.2   215      7.1   842.9    0.00       0    31.3
 323    3:10   30.3    48    5.6   214      7.4   842.9    0.00       0    31.3
 323    3:20   30.9    47    3.9   211      5.1   842.8    0.00       0    31.1
 323    3:30   31.5    47    3.8   217      6.1   842.6    0.00       0    31.3
 323    3:40   31.3    46    1.9   237      3.8   842.6    0.00       0    31.1
 323    3:50   30.9    47    0.8   206      2.8   842.6    0.00       0    30.8
 323    4:00   30.4    47    1.1   238      3.7   842.6    0.00       0    30.6
 323    4:10   29.1    48    0.8   156      2.1   842.5    0.00       0    28.7
 323    4:20   28.5    49    2.1   184      3.4   842.3    0.00       0    28.7
 323    4:30   28.8    49    2.1   240      3.9   842.1    0.00       0    29.4
 323    4:40   28.5    49    1.7   297      5.3   842.0    0.00       0    28.0
 323    4:50   28.2    51    3.2   294      4.6   841.9    0.00       0    28.8
 323    5:00   27.8    51    4.0   291      6.4   841.8    0.00       0    28.3
 323    5:10   25.7    53    2.4   306      4.7   841.8    0.00       0    26.4
 323    5:20   24.3    52    2.4   336      6.4   841.8    0.00       0    25.6
 323    5:30   22.7    51    4.2    84      6.6   841.8    0.00       0    23.5
 323    5:40   23.8    52    6.4   110      8.6   841.8    0.00       0    24.8
 323    5:50   25.7    52    6.9   124      8.2   841.8    0.00       0    25.7
 323    6:00   25.7    52    8.4   150     10.5   841.6    0.00       0    26.6
 323    6:10   27.0    52    8.3   166     10.2   841.6    0.00       0    27.5
 323    6:20   27.9    51    8.4   162     11.5   841.6    0.00       0    28.1
 323    6:30   28.3    50    2.3   292     11.6   841.6    0.00       1    27.9
 323    6:40   25.8    53    3.8   266      6.4   841.7    0.00       3    26.3
 323    6:50   25.3    54    3.2   228      5.8   841.7    0.00       7    26.1
 323    7:00   26.2    53    1.1   195      2.4   841.6    0.00      13    27.0
 323    7:10   26.7    52    2.5   174      4.2   841.5    0.00      24    27.7
 323    7:20   27.9    50    2.8   192      4.4   841.5    0.00      50    30.2
 323    7:30   29.9    48    3.1   181      5.0   841.4    0.00      96    34.4
 323    7:40   31.3    44    1.4   326      6.5   841.7    0.00      82    33.6
 323    7:50   30.1    44    2.3   348      4.9   841.8    0.00      99    33.4
 323    8:00   30.4    44    2.0   339      4.7   842.0    0.00     126    34.1
 323    8:10   30.1    43    1.8   316      4.7   842.2    0.00     128    33.1
 323    8:20   31.5    43    1.0    44      3.1   842.2    0.00     133    34.6
 323    8:30   32.9    42    2.8   154      4.2   842.1    0.00     220    38.0
 323    8:40   36.0    39    1.7   171      4.0   842.2    0.00     245    42.5
 323    8:50   38.2    36    1.9    37      4.6   842.2    0.00     230    42.4
 323    9:00   38.9    36    2.9   318      5.4   842.2    0.00     303    44.5
 323    9:10   40.1    34    3.4   314      5.9   842.4    0.00     367    47.6
 323    9:20   40.3    32    4.7   323      7.4   842.9    0.00     415    48.4
 323    9:30   42.3    30    2.2   311      5.8   842.8    0.00     423    51.9
 323    9:40   44.6    29    2.2    16      4.7   842.8    0.00     442    54.6
 323    9:50   44.7    29    3.4    37      6.2   843.0    0.00     412    54.3
 323   10:00   45.8    29    3.1    53      6.3   843.2    0.00     393    54.4
 323   10:10   47.3    28    3.3    65      6.4   843.3    0.00     383    54.6
 323   10:20   50.3    25    2.2    60      5.0   843.2    0.00     411    58.0
 323   10:30   52.4    24    1.9    69      5.6   843.3    0.00     263    55.8
 323   10:40   54.1    23    2.4    28      3.9   843.3    0.00     325    57.5
 323   10:50   55.1    22    3.0   325      8.0   843.0    0.00     299    57.5
 323   11:00   56.2    22    3.3   316      5.1   842.9    0.00     251    57.5
 323   11:10   58.9    20    2.1   301      4.2   843.0    0.00     233    58.7
 323   11:20   60.0    19    6.1   181     13.9   842.6    0.00     222    59.6
 323   11:30   61.9    18   10.5   188     18.9   842.6    0.00     237    61.2
 323   11:40   61.8    18   11.1   180     15.6   842.7    0.00     231    61.3
 323   11:50   61.6    18    9.2   172     12.9   842.4    0.00     209    61.6
 323   12:00   61.7    19    8.2   194     11.8   842.2    0.00     191    61.1
 323   12:10   61.9    18   11.8   186     20.6   842.0    0.00     188    61.3
 323   12:20   61.7    18   16.2   180     25.9   841.7    0.00     195    61.9
 323   12:30   62.3    18   10.9   193     19.5   841.6    0.00     159    62.0
 323   12:40   62.8    17    5.1   223     10.9   841.5    0.00     105    61.4
 323   12:50   62.8    17    6.1   224     10.7   841.4    0.00     113    61.3
 323   13:00   62.7    17    5.1   223     10.6   841.3    0.00     123    61.3
 323   13:10   62.5    18    5.7   225     10.4   841.0    0.00     114    61.1
 323   13:20   62.4    17    8.5   210     19.8   840.6    1.03     116    61.2
 323   13:30   61.3    18   15.3   181     23.7   840.3    0.00     159    60.9
 323   13:40   61.3    18   16.3   184     23.0   840.0    0.00     177    61.1
 323   13:50   61.4    18   18.3   178     24.3   840.0    0.00     259    56.9
 323   14:00   61.9    17   16.9   166     25.4   840.0    0.00     249    50.4
 323   14:10   61.7    18   15.6   176     22.6   840.2    0.00     203    50.3
 323   14:20   61.8    18   14.9   170     19.8   839.9    0.00     245    50.4
 323   14:30   62.0    18   13.1   175     18.0   839.7    0.00     220    50.7
 323   14:40   62.3    17   13.9   182     20.4   839.8    0.00     269    50.6
 323   14:50   62.0    17   14.3   183     20.3   839.7    0.00     135    50.8
 323   15:00   61.7    17   14.2   186     20.4   839.4    0.00     152    50.9
 323   15:10   61.7    17   13.8   184     17.7   839.1    0.00     142    50.9
 323   15:20   61.0    17   10.8   179     15.9   839.1    0.00      67    51.1
 323   15:30   60.8    16    7.2   172      9.9   839.0    0.00      63    51.1
 323   15:40   60.3    17    7.1   138      9.7   838.8    0.00      39    51.2
 323   15:50   60.5    17    3.6   120      8.4   838.6    0.00      90    51.2
 323   16:00   59.7    18    6.2   174     12.4   838.4    0.00      33    51.3
 323   16:10   58.2    20   11.3   182     18.4   838.4    0.00      33    51.2
 323   16:20   57.8    21   11.1   174     16.1   838.3    0.00      13    51.2
 323   16:30   57.2    21   10.6   167     14.5   838.2    0.00       8    51.2
 323   16:40   56.7    21   10.1   166     13.9   837.9    0.00       3    51.2
 323   16:50   56.3    21   12.6   174     15.7   837.7    0.00       3    51.2
 323   17:00   56.5    21   17.5   171     21.5   837.6    0.00       0    51.0
 323   17:10   56.5    22   17.6   157     23.5   837.5    0.00       0    51.0
 323   17:20   55.9    23   17.2   156     22.8   837.6    0.00       0    51.0
 323   17:30   55.1    24   15.1   156     19.6   837.4    0.00       0    50.9
 323   17:40   54.5    25   14.6   161     17.8   837.3    0.00       0    50.8
 323   17:50   54.4    25   13.2   164     17.4   837.3    0.00       0    50.8
 323   18:00   54.3    25   12.9   173     15.7   837.4    0.00       0    50.8
 323   18:10   54.3    25   12.9   168     17.7   837.3    0.00       0    50.8
 323   18:20   54.0    25   12.4   163     16.3   837.2    0.00       0    50.7
 323   18:30   54.3    25   11.6   160     15.0   837.0    0.00       0    50.7
 323   18:40   53.9    25    9.7   165     12.9   836.9    0.00       0    50.6
 323   18:50   54.8    25   12.7   151     15.6   836.9    0.00       0    50.6
 323   19:00   55.1    25   11.6   148     15.1   836.9    0.00       0    50.6
 323   19:10   55.2    25   11.1   155     16.0   836.7    0.00       0    50.5
 323   19:20   54.2    26   11.0   164     15.9   836.6    0.00       0    50.4
 323   19:30   54.1    26   10.7   155     14.7   836.4    0.00       0    50.5
 323   19:40   53.4    26   11.2   167     16.1   836.2    0.00       0    50.5
 323   19:50   52.0    28    9.6   183     12.3   836.0    0.00       0    50.4
 323   20:00   51.4    28    6.5   187      8.4   835.9    0.00       0    50.4
 323   20:10   51.1    29    7.2   187     10.0   835.8    0.00       0    50.3
 323   20:20   50.6    31    8.0   187     10.4   835.6    0.00       0    50.3
 323   20:30   50.5    32    6.9   182      9.8   835.4    0.00       0    50.3
 323   20:40   50.9    32    3.2   200      6.5   835.3    0.00       0    50.1
 323   20:50   50.5    34    1.5   272      3.3   835.3    0.00       0    50.1
 323   21:00   51.1    37    6.4   182     13.3   835.3    0.00       0    50.0
 323   21:10   52.7    36   12.3   174     16.1   835.1    0.00       0    49.9
 323   21:20   52.9    36   15.2   173     21.6   835.2    0.00       0    49.9
 323   21:30   52.8    37   12.8   175     18.0   835.4    0.00       0    49.8
 323   21:40   52.3    38   10.8   178     16.0   835.5    0.00       0    49.8
 323   21:50   52.0    38   10.8   174     14.6   835.5    0.00       0    49.7
 323   22:00   52.2    38   10.4   165     13.3   835.5    0.00       0    49.7
 323   22:10   52.1    38   10.3   166     13.4   835.5    0.00       0    49.7
 323   22:20   52.4    38   10.0   166     12.1   835.5    0.00       0    49.7
 323   22:30   52.5    38   11.7   173     14.8   835.3    0.00       0    49.7
 323   22:40   52.5    38   15.0   176     18.4   835.1    0.00       0    49.7
 323   22:50   52.0    39   16.3   186     19.4   834.8    0.00       0    49.7
 323   23:00   51.6    41   18.1   180     21.5   834.5    0.00       0    49.7
 323   23:10   52.3    41   19.6   186     22.4   834.2    0.00       0    49.7
 323   23:20   51.9    42   17.2   187     21.4   834.1    0.00       0    49.7
 323   23:30   52.4    42   13.9   188     18.0   834.2    0.00       0    49.7
 323   23:40   52.3    43   11.3   167     17.0   834.3    0.00       0    49.7
 323   23:50   52.8    43   13.0   173     17.3   834.5    0.00       0    49.7
 324    0:00   52.3    44    9.9   175     12.2   834.8    0.00       0    49.7
 324    0:10   52.5    44   10.4   160     14.4   835.0    0.00       0    49.8
 324    0:20   51.7    49   11.2   168     15.4   835.0    0.00       0    49.7
 324    0:30   51.2    53   10.3   171     13.7   835.0    0.00       0    49.8
 324    0:40   51.0    56    8.5   171     13.2   834.8    0.00       0    49.7
 324    0:50   50.9    59    8.9   170     11.5   834.7    0.00       0    49.7
 324    1:00   50.6    62    6.8   173      9.3   834.7    0.00       0    49.7
 324    1:10   50.1    65    5.0   197      6.4   834.7    0.00       0    49.7

Return to St. George, Utah graphs page.


Western Regional Climate Center,wrcc@dri.edu